New York, New York
Traffic Map
Current Weather Conditions
New York, New York
Clear
Clear
31°
Feels Like: 24°
Wind Chill: 24° Ceiling: Unl
Heat Index: 31° Visibility: 10mi
Dew Point: 15° Wind: 7mph
Humidity: 52% Direction: ° ()
Pressure: 29.78in Gusts: 22mph
Raw Report DataKNYC 141751Z AUTO VRB06G19KT 10SM CLR M01/M09 A2978 RMK AO2 SLP076 60002 T10061094 11006 21033 51023 $
Traffic Incident Summary
Active as of:
Severity:
Category:
InformationThere was an issue retrieving the traffic information for this location. Please try a different location or try again shortly.
Advertisements